Overview Statistics Trail Chart Weather Telemetry Raw packets
 

This is the latest recevied weather packets stored in our database for station/object WE1C. If no packets are shown the sender has not sent any weather packets the latest 10 day(s).

<< 6 7 8 9 10 11 12 >>
Time Temp. Humidity Pressure Rain* Wind** Luminosity Snow
1788567531 18.89° C 84% 1038.8 hPa 0 mm - 0 W/m² -
1788567262 19.44° C 84% 1038.7 hPa 0 mm - 0 W/m² -
1788566926 19.44° C 84% 1038.9 hPa 0 mm - 0 W/m² -
1788566621 20° C 85% 1038.5 hPa 0 mm - 0 W/m² -
1788566317 19.44° C 82% 1038.7 hPa 0 mm - 0 W/m² -
1788566012 20° C 82% 1038.7 hPa 0 mm - 0 W/m² -
1788565707 20° C 83% 1038.4 hPa 0 mm - 0 W/m² -
1788565407 20° C 82% 1038.7 hPa 0 mm - 0 W/m² -
1788565103 20° C 82% 1038.7 hPa 0 mm - 0 W/m² -
1788564798 20° C 81% 1038.4 hPa 0 mm - 0 W/m² -
1788564495 20° C 81% 1038.7 hPa 0 mm - 0 W/m² -
1788564191 20° C 81% 1038.5 hPa 0 mm - 0 W/m² -
1788563887 20.56° C 81% 1038.4 hPa 0 mm - 1 W/m² -
1788563582 20.56° C 82% 1038.4 hPa 0 mm - 3 W/m² -
1788563277 20.56° C 81% 1038.5 hPa 0 mm - 8 W/m² -
1788562975 20.56° C 83% 1038.1 hPa 0 mm - 12 W/m² -
1788562670 21.11° C 84% 1038.2 hPa 0 mm - 16 W/m² -
1788562364 21.11° C 82% 1038.3 hPa 0 mm - 17 W/m² -
1788562063 21.11° C 81% 1038.3 hPa 0 mm - 17 W/m² -
1788561759 21.11° C 81% 1038.1 hPa 0 mm - 23 W/m² -
1788561458 21.11° C 81% 1038.1 hPa 0 mm - 32 W/m² -
1788561153 21.11° C 82% 1038.1 hPa 0 mm - 37 W/m² -
1788560849 21.11° C 82% 1038 hPa 0 mm - 39 W/m² -
1788560544 21.67° C 81% 1038 hPa 0 mm - 33 W/m² -
1788560263 21.67° C 80% 1038 hPa 0 mm - 34 W/m² -

* Rain latest hour (hover to see other rain measurements)
** Current wind speed in m/s (hover to see current wind gust speed)